Time;durP1;ratioP1;P1;durP2;ratioP2;P2;SDS_P1;SDS_P2;PMS_P1;PMS_P2;Temp;Humidity;BMP_temperature;BMP_pressure;BME280_temperature;BME280_humidity;BME280_pressure;Samples;Min_cycle;Max_cycle;Signal;HPM_P1;HPM_P2
2022/03/19 00:00:49;;;;;;;84.95;47.65;;;;;;;;;;5027763;28;20747;-75
2022/03/19 00:03:15;;;;;;;87.57;47.20;;;;;;;;;;5043485;28;20035;-75
2022/03/19 00:05:41;;;;;;;83.00;44.63;;;;;;;;;;5042591;28;20041;-75
2022/03/19 00:08:06;;;;;;;82.82;45.90;;;;;;;;;;5010734;28;20408;-75
2022/03/19 00:10:32;;;;;;;79.82;44.33;;;;;;;;;;5043055;28;20035;-75
2022/03/19 00:12:59;;;;;;;85.70;46.75;;;;;;;;;;5043029;28;20458;-75
2022/03/19 00:15:25;;;;;;;94.88;50.88;;;;;;;;;;5025201;28;20037;-75
2022/03/19 00:17:52;;;;;;;96.22;52.78;;;;;;;;;;5044456;28;20033;-75
2022/03/19 00:20:18;;;;;;;81.63;43.75;;;;;;;;;;5045036;28;20116;-74
2022/03/19 00:22:44;;;;;;;88.93;46.70;;;;;;;;;;5044578;28;20115;-74
2022/03/19 00:25:11;;;;;;;80.20;44.92;;;;;;;;;;5043857;28;20032;-75
2022/03/19 00:27:37;;;;;;;87.00;48.03;;;;;;;;;;5041452;28;20033;-75
2022/03/19 00:30:04;;;;;;;91.05;48.22;;;;;;;;;;5026487;28;20039;-75
2022/03/19 00:32:29;;;;;;;86.97;46.90;;;;;;;;;;5043815;28;21612;-76
2022/03/19 00:34:55;;;;;;;86.55;46.92;;;;;;;;;;5028555;28;20039;-75
2022/03/19 00:37:21;;;;;;;85.13;46.33;;;;;;;;;;5027473;28;20025;-75
2022/03/19 00:39:47;;;;;;;88.68;47.28;;;;;;;;;;5023411;28;20025;-75
2022/03/19 00:42:12;;;;;;;76.28;44.35;;;;;;;;;;5042328;28;20116;-75
2022/03/19 00:44:38;;;;;;;65.93;42.53;;;;;;;;;;5010931;28;20052;-75
2022/03/19 00:47:04;;;;;;;87.07;46.38;;;;;;;;;;5043076;28;20069;-75
2022/03/19 00:49:29;;;;;;;75.15;43.70;;;;;;;;;;5026903;28;20095;-75
2022/03/19 00:51:55;;;;;;;89.13;52.15;;;;;;;;;;5027336;28;20032;-75
2022/03/19 00:54:21;;;;;;;81.13;45.08;;;;;;;;;;5045886;28;20040;-75
2022/03/19 00:56:47;;;;;;;86.15;46.78;;;;;;;;;;5047723;28;20017;-75
2022/03/19 00:59:13;;;;;;;73.93;43.00;;;;;;;;;;5010488;28;20033;-77
2022/03/19 01:01:39;;;;;;;81.45;41.30;;;;;;;;;;5047123;28;20032;-75
2022/03/19 01:04:04;;;;;;;86.30;43.90;;;;;;;;;;5035815;28;20053;-76
2022/03/19 01:06:30;;;;;;;81.72;46.85;;;;;;;;;;5031564;28;20049;-75
2022/03/19 01:08:56;;;;;;;82.13;46.33;;;;;;;;;;5037917;28;20033;-75
2022/03/19 01:11:23;;;;;;;84.95;46.13;;;;;;;;;;5046899;28;20428;-74
2022/03/19 01:13:50;;;;;;;74.90;43.75;;;;;;;;;;5047032;28;20021;-75
2022/03/19 01:16:18;;;;;;;69.20;42.10;;;;;;;;;;5044761;28;20140;-75
2022/03/19 01:18:49;;;;;;;75.72;43.03;;;;;;;;;;5027114;28;20044;-75
2022/03/19 01:21:15;;;;;;;84.10;46.45;;;;;;;;;;5030806;28;20056;-74
2022/03/19 01:23:41;;;;;;;83.75;45.33;;;;;;;;;;5041383;28;20402;-74
2022/03/19 01:26:07;;;;;;;72.38;43.45;;;;;;;;;;5023254;28;20032;-75
2022/03/19 01:28:32;;;;;;;77.20;43.42;;;;;;;;;;5020257;28;20512;-75
2022/03/19 01:30:58;;;;;;;76.45;41.45;;;;;;;;;;5025606;28;20033;-75
2022/03/19 01:33:24;;;;;;;74.78;44.50;;;;;;;;;;5033668;28;20049;-75
2022/03/19 01:35:49;;;;;;;72.75;41.88;;;;;;;;;;5044046;28;20053;-75
2022/03/19 01:38:15;;;;;;;76.97;43.92;;;;;;;;;;5024159;28;20068;-75
2022/03/19 01:40:40;;;;;;;81.75;43.38;;;;;;;;;;5044982;28;20116;-75
2022/03/19 01:43:06;;;;;;;82.90;47.78;;;;;;;;;;5044905;28;20029;-75
2022/03/19 01:45:32;;;;;;;84.85;46.67;;;;;;;;;;5044759;28;20048;-76
2022/03/19 01:47:58;;;;;;;81.35;43.72;;;;;;;;;;5041112;28;20087;-75
2022/03/19 01:50:25;;;;;;;71.47;41.20;;;;;;;;;;5025686;28;20034;-75
2022/03/19 01:52:51;;;;;;;75.63;43.08;;;;;;;;;;5018040;28;20099;-75
2022/03/19 01:55:23;;;;;;;65.75;40.65;;;;;;;;;;5045305;28;20029;-75
2022/03/19 01:57:50;;;;;;;69.32;42.60;;;;;;;;;;5019072;28;20401;-75
2022/03/19 02:00:23;;;;;;;77.53;45.97;;;;;;;;;;5036197;28;20480;-75
2022/03/19 02:02:50;;;;;;;76.07;44.83;;;;;;;;;;5022775;28;20037;-75
2022/03/19 02:05:18;;;;;;;73.32;41.72;;;;;;;;;;5045085;28;20037;-74
2022/03/19 02:07:45;;;;;;;70.78;42.28;;;;;;;;;;5041033;28;20489;-75
2022/03/19 02:10:13;;;;;;;77.88;41.90;;;;;;;;;;5036274;28;20041;-75
2022/03/19 02:12:40;;;;;;;76.07;44.20;;;;;;;;;;5030987;28;20043;-76
2022/03/19 02:15:06;;;;;;;78.68;40.83;;;;;;;;;;5043969;28;20628;-75
2022/03/19 02:17:32;;;;;;;72.03;43.05;;;;;;;;;;5037753;28;20025;-74
2022/03/19 02:19:58;;;;;;;69.93;41.33;;;;;;;;;;5012981;28;20040;-75
2022/03/19 02:22:29;;;;;;;80.10;43.92;;;;;;;;;;5005523;28;20815;-76
2022/03/19 02:27:41;;;;;;;74.03;40.50;;;;;;;;;;5028681;28;20091;-75
2022/03/19 02:30:10;;;;;;;65.20;40.72;;;;;;;;;;5025005;28;20039;-74
2022/03/19 02:32:38;;;;;;;76.35;42.38;;;;;;;;;;5018793;28;20724;-75
2022/03/19 02:35:05;;;;;;;;;;;;;;;;;;5044824;28;20484;-75
2022/03/19 02:37:42;;;;;;;69.07;38.38;;;;;;;;;;5034168;28;19919;-75
2022/03/19 02:40:10;;;;;;;70.70;40.05;;;;;;;;;;5026541;28;20033;-75
2022/03/19 02:42:36;;;;;;;64.47;39.58;;;;;;;;;;5039694;28;20036;-76
2022/03/19 02:45:05;;;;;;;76.32;41.05;;;;;;;;;;5047691;28;20469;-75
2022/03/19 02:47:32;;;;;;;81.32;41.17;;;;;;;;;;5026211;28;20033;-76
2022/03/19 02:49:58;;;;;;;68.47;38.88;;;;;;;;;;5029716;28;20404;-75
2022/03/19 02:52:24;;;;;;;67.70;39.58;;;;;;;;;;5019100;28;20563;-76
2022/03/19 02:54:50;;;;;;;70.60;38.40;;;;;;;;;;5020552;28;20041;-75
2022/03/19 02:57:15;;;;;;;68.20;39.65;;;;;;;;;;5023915;28;20040;-75
2022/03/19 02:59:41;;;;;;;66.38;41.13;;;;;;;;;;5047257;28;20064;-76
2022/03/19 03:02:07;;;;;;;73.57;42.35;;;;;;;;;;5015063;28;20040;-75
2022/03/19 03:04:34;;;;;;;68.13;40.95;;;;;;;;;;5033503;28;20037;-75
2022/03/19 03:07:02;;;;;;;69.68;41.50;;;;;;;;;;5026451;28;20098;-75
2022/03/19 03:09:30;;;;;;;67.22;39.90;;;;;;;;;;5038024;28;20035;-76
2022/03/19 03:11:58;;;;;;;69.43;38.85;;;;;;;;;;5046007;28;20037;-75
2022/03/19 03:14:24;;;;;;;61.35;38.00;;;;;;;;;;5028036;28;20086;-75
2022/03/19 03:16:52;;;;;;;65.78;38.58;;;;;;;;;;5040024;28;20499;-75
2022/03/19 03:19:19;;;;;;;72.22;41.85;;;;;;;;;;5038250;28;20033;-75
2022/03/19 03:21:45;;;;;;;63.50;39.30;;;;;;;;;;5037948;28;20041;-76
2022/03/19 03:24:12;;;;;;;54.67;36.10;;;;;;;;;;5011714;28;20407;-75
2022/03/19 03:26:39;;;;;;;68.25;39.67;;;;;;;;;;5028321;28;20495;-75
2022/03/19 03:29:06;;;;;;;66.40;38.42;;;;;;;;;;5048509;28;20041;-75
2022/03/19 03:31:32;;;;;;;75.40;42.72;;;;;;;;;;5038382;28;20092;-75
2022/03/19 03:33:59;;;;;;;66.35;39.05;;;;;;;;;;5023421;28;20033;-75
2022/03/19 03:36:25;;;;;;;61.30;37.30;;;;;;;;;;5025790;28;20037;-75
2022/03/19 03:38:50;;;;;;;68.32;38.90;;;;;;;;;;5034213;28;20543;-75
2022/03/19 03:41:16;;;;;;;66.63;39.55;;;;;;;;;;5029744;28;20037;-75
2022/03/19 03:43:42;;;;;;;66.13;37.13;;;;;;;;;;5041857;28;20065;-75
2022/03/19 03:46:08;;;;;;;66.35;37.42;;;;;;;;;;5047957;28;20072;-75
2022/03/19 03:48:38;;;;;;;58.58;36.78;;;;;;;;;;5024345;28;20025;-76
2022/03/19 03:51:08;;;;;;;68.13;41.47;;;;;;;;;;5036758;28;20795;-76
2022/03/19 03:53:35;;;;;;;60.90;38.25;;;;;;;;;;5025029;28;20036;-75
2022/03/19 03:56:01;;;;;;;63.50;38.28;;;;;;;;;;5024574;28;20056;-74
2022/03/19 03:58:27;;;;;;;61.15;36.05;;;;;;;;;;5018250;28;20045;-76
2022/03/19 04:00:53;;;;;;;62.50;37.85;;;;;;;;;;5035631;28;20037;-75
2022/03/19 04:03:19;;;;;;;64.97;37.60;;;;;;;;;;5020405;28;20043;-75
2022/03/19 04:05:45;;;;;;;59.28;35.80;;;;;;;;;;5042387;28;20040;-75
2022/03/19 04:08:11;;;;;;;62.22;36.53;;;;;;;;;;5027134;28;20033;-75
2022/03/19 04:10:37;;;;;;;61.65;35.08;;;;;;;;;;5033733;28;20087;-75
2022/03/19 04:13:03;;;;;;;67.50;38.42;;;;;;;;;;5028131;28;20037;-75
2022/03/19 04:15:29;;;;;;;63.10;38.85;;;;;;;;;;5037637;28;20033;-76
2022/03/19 04:17:55;;;;;;;60.35;36.30;;;;;;;;;;5010476;28;20120;-75
2022/03/19 04:20:22;;;;;;;65.82;38.88;;;;;;;;;;5033720;28;20128;-75
2022/03/19 04:22:49;;;;;;;64.57;38.22;;;;;;;;;;5039535;28;20705;-75
2022/03/19 04:25:19;;;;;;;62.45;37.15;;;;;;;;;;5037893;28;20041;-75
2022/03/19 04:27:47;;;;;;;60.83;36.30;;;;;;;;;;5026587;28;20068;-75
2022/03/19 04:30:15;;;;;;;61.30;37.47;;;;;;;;;;5036376;28;20025;-76
2022/03/19 04:32:42;;;;;;;60.55;36.28;;;;;;;;;;5033870;28;20059;-74
2022/03/19 04:38:01;;;;;;;61.38;35.63;;;;;;;;;;5035680;28;20610;-75
2022/03/19 04:40:27;;;;;;;64.85;37.65;;;;;;;;;;5033685;28;20041;-75
2022/03/19 04:42:53;;;;;;;62.65;36.83;;;;;;;;;;5041350;28;20040;-75
2022/03/19 04:45:20;;;;;;;64.90;36.83;;;;;;;;;;5038692;28;20047;-75
2022/03/19 04:47:46;;;;;;;65.63;37.67;;;;;;;;;;5035603;28;20067;-75
2022/03/19 04:50:11;;;;;;;68.18;37.85;;;;;;;;;;5037747;28;20069;-75
2022/03/19 04:52:38;;;;;;;77.22;42.58;;;;;;;;;;5015602;28;20051;-75
2022/03/19 04:55:06;;;;;;;67.97;37.90;;;;;;;;;;5034640;28;20037;-75
2022/03/19 04:57:31;;;;;;;54.47;33.70;;;;;;;;;;5033910;28;20029;-74
2022/03/19 04:59:58;;;;;;;71.25;38.03;;;;;;;;;;5035966;28;20550;-77
2022/03/19 05:02:24;;;;;;;68.22;36.97;;;;;;;;;;5035380;28;20076;-74
2022/03/19 05:04:51;;;;;;;57.00;36.25;;;;;;;;;;5012631;28;20037;-74
2022/03/19 05:07:19;;;;;;;64.40;34.88;;;;;;;;;;5025337;28;20072;-75
2022/03/19 05:12:41;;;;;;;61.63;35.72;;;;;;;;;;5025096;28;20044;-74
2022/03/19 05:15:10;;;;;;;62.28;36.42;;;;;;;;;;5022706;28;20041;-75
2022/03/19 05:17:36;;;;;;;60.15;36.67;;;;;;;;;;5026675;28;20037;-74
2022/03/19 05:20:03;;;;;;;56.65;34.63;;;;;;;;;;5017865;28;20051;-74
2022/03/19 05:22:29;;;;;;;62.08;36.28;;;;;;;;;;5023543;28;20488;-75
2022/03/19 05:24:56;;;;;;;65.72;34.25;;;;;;;;;;5038638;28;20041;-75
2022/03/19 05:27:23;;;;;;;56.13;36.03;;;;;;;;;;5044275;28;20045;-75
2022/03/19 05:29:48;;;;;;;57.30;34.80;;;;;;;;;;5031744;28;20033;-75
2022/03/19 05:32:15;;;;;;;58.95;35.25;;;;;;;;;;5034309;28;20095;-74
2022/03/19 05:34:41;;;;;;;54.60;34.97;;;;;;;;;;5019784;28;20083;-75
2022/03/19 05:37:07;;;;;;;57.35;34.55;;;;;;;;;;5024820;28;20037;-75
2022/03/19 05:39:33;;;;;;;54.30;32.55;;;;;;;;;;5037909;28;20052;-74
2022/03/19 05:42:00;;;;;;;55.75;34.75;;;;;;;;;;5042341;28;20102;-74
2022/03/19 05:44:26;;;;;;;58.05;35.97;;;;;;;;;;5041780;28;20037;-74
2022/03/19 05:46:52;;;;;;;59.90;35.05;;;;;;;;;;5041128;28;20512;-74
2022/03/19 05:49:18;;;;;;;62.88;35.80;;;;;;;;;;5024762;28;20076;-77
2022/03/19 05:51:44;;;;;;;58.90;34.50;;;;;;;;;;5039302;28;20029;-74
2022/03/19 05:54:10;;;;;;;59.97;36.38;;;;;;;;;;5042785;28;20037;-74
2022/03/19 05:56:37;;;;;;;57.97;35.13;;;;;;;;;;5045347;28;20078;-74
2022/03/19 05:59:03;;;;;;;61.33;36.53;;;;;;;;;;5020747;28;20155;-75
2022/03/19 06:01:29;;;;;;;60.28;37.63;;;;;;;;;;5044650;28;20044;-74
2022/03/19 06:03:56;;;;;;;55.13;35.53;;;;;;;;;;5045856;28;20036;-74
2022/03/19 06:06:23;;;;;;;53.30;34.72;;;;;;;;;;5032809;28;20044;-74
2022/03/19 06:08:48;;;;;;;55.63;35.13;;;;;;;;;;5019343;28;20119;-74
2022/03/19 06:11:14;;;;;;;53.00;33.53;;;;;;;;;;5045711;28;20064;-74
2022/03/19 06:13:40;;;;;;;56.53;35.60;;;;;;;;;;5044788;28;20040;-74
2022/03/19 06:16:06;;;;;;;56.30;35.22;;;;;;;;;;5039875;28;20044;-75
2022/03/19 06:18:31;;;;;;;55.50;33.80;;;;;;;;;;5048886;28;20061;-74
2022/03/19 06:20:57;;;;;;;55.15;35.65;;;;;;;;;;5025600;28;20044;-74
2022/03/19 06:23:23;;;;;;;55.17;32.65;;;;;;;;;;5042896;28;20036;-75
2022/03/19 06:25:49;;;;;;;57.08;33.85;;;;;;;;;;5020250;28;20455;-74
2022/03/19 06:28:16;;;;;;;50.70;33.67;;;;;;;;;;5044021;28;20048;-74
2022/03/19 06:30:42;;;;;;;50.53;32.17;;;;;;;;;;5029455;28;20075;-74
2022/03/19 06:33:07;;;;;;;51.33;33.42;;;;;;;;;;5003663;28;20709;-74
2022/03/19 06:38:18;;;;;;;57.40;34.70;;;;;;;;;;5046696;28;20025;-75
2022/03/19 06:40:44;;;;;;;54.65;33.90;;;;;;;;;;5045232;28;20108;-75
2022/03/19 06:43:10;;;;;;;60.78;33.90;;;;;;;;;;5028701;28;20090;-74
2022/03/19 06:45:37;;;;;;;62.00;36.53;;;;;;;;;;5021759;28;20758;-75
2022/03/19 06:48:03;;;;;;;53.85;34.10;;;;;;;;;;5028533;28;20393;-75
2022/03/19 06:50:29;;;;;;;55.15;32.95;;;;;;;;;;5017135;28;20104;-75
2022/03/19 06:52:54;;;;;;;51.60;32.60;;;;;;;;;;5028105;28;20041;-75
2022/03/19 06:55:20;;;;;;;52.85;33.33;;;;;;;;;;5044485;28;20037;-75
2022/03/19 06:57:46;;;;;;;50.88;34.47;;;;;;;;;;5035456;28;20488;-75
2022/03/19 07:00:12;;;;;;;50.25;33.85;;;;;;;;;;5037377;28;20029;-75
2022/03/19 07:02:54;;;;;;;48.45;31.63;;;;;;;;;;5038633;28;20166;-75
2022/03/19 07:05:21;;;;;;;53.03;33.13;;;;;;;;;;5042439;28;20535;-74
2022/03/19 07:07:48;;;;;;;53.88;34.15;;;;;;;;;;5039060;28;20033;-75
2022/03/19 07:10:15;;;;;;;55.60;34.85;;;;;;;;;;5032446;28;20033;-75
2022/03/19 07:12:42;;;;;;;54.55;32.13;;;;;;;;;;5027169;28;20404;-75
2022/03/19 07:15:10;;;;;;;48.60;32.70;;;;;;;;;;5019974;28;20527;-75
2022/03/19 07:17:36;;;;;;;46.67;31.67;;;;;;;;;;5040526;28;20125;-75
2022/03/19 07:20:02;;;;;;;46.50;30.92;;;;;;;;;;5036022;28;20194;-75
2022/03/19 07:22:28;;;;;;;48.10;33.03;;;;;;;;;;5041490;28;20029;-75
2022/03/19 07:24:53;;;;;;;51.17;32.15;;;;;;;;;;5038470;28;20048;-75
2022/03/19 07:27:19;;;;;;;54.60;33.70;;;;;;;;;;5020439;28;20110;-75
2022/03/19 07:29:45;;;;;;;43.60;31.20;;;;;;;;;;5046198;28;20045;-75
2022/03/19 07:32:10;;;;;;;47.22;33.85;;;;;;;;;;5034685;28;20056;-75
2022/03/19 07:34:39;;;;;;;45.45;32.58;;;;;;;;;;5036286;28;20087;-74
2022/03/19 07:37:05;;;;;;;43.30;31.70;;;;;;;;;;5042137;28;20083;-75
2022/03/19 07:39:30;;;;;;;44.42;32.10;;;;;;;;;;5025883;28;20033;-75
2022/03/19 07:41:56;;;;;;;44.65;31.73;;;;;;;;;;5038718;28;20508;-75
2022/03/19 07:44:26;;;;;;;41.95;30.73;;;;;;;;;;5044670;28;20516;-74
2022/03/19 07:46:51;;;;;;;42.47;30.30;;;;;;;;;;5037135;28;20039;-75
2022/03/19 07:49:17;;;;;;;41.67;31.23;;;;;;;;;;5027497;28;20029;-74
2022/03/19 07:51:44;;;;;;;38.50;29.77;;;;;;;;;;5037794;28;20048;-74
2022/03/19 07:54:10;;;;;;;41.95;30.13;;;;;;;;;;5043880;28;20114;-74
2022/03/19 07:56:35;;;;;;;39.30;30.02;;;;;;;;;;5039532;28;20167;-75
2022/03/19 07:59:01;;;;;;;40.33;29.55;;;;;;;;;;5016899;28;20041;-75
2022/03/19 08:01:27;;;;;;;43.45;29.33;;;;;;;;;;5021967;28;20488;-75
2022/03/19 08:03:52;;;;;;;36.80;30.08;;;;;;;;;;5027193;28;20039;-75
2022/03/19 08:06:19;;;;;;;38.13;28.23;;;;;;;;;;5015103;28;20492;-75
2022/03/19 08:08:44;;;;;;;36.13;27.35;;;;;;;;;;5039295;28;20039;-74
2022/03/19 08:11:10;;;;;;;37.30;28.90;;;;;;;;;;5046781;28;20029;-74
2022/03/19 08:13:37;;;;;;;37.83;28.73;;;;;;;;;;5041627;28;20400;-75
2022/03/19 08:16:03;;;;;;;37.03;28.05;;;;;;;;;;5013731;28;20444;-74
2022/03/19 08:18:29;;;;;;;38.63;29.45;;;;;;;;;;5039422;28;20026;-75
2022/03/19 08:20:56;;;;;;;38.30;28.35;;;;;;;;;;5039487;28;20045;-75
2022/03/19 08:23:22;;;;;;;37.33;28.30;;;;;;;;;;5038451;28;20042;-76
2022/03/19 08:25:48;;;;;;;36.70;26.95;;;;;;;;;;5037835;28;20036;-77
2022/03/19 08:28:13;;;;;;;35.95;28.20;;;;;;;;;;5023430;28;20030;-75
2022/03/19 08:30:40;;;;;;;38.80;30.08;;;;;;;;;;5043729;28;20047;-76
2022/03/19 08:33:05;;;;;;;37.85;27.67;;;;;;;;;;5046756;28;20040;-75
2022/03/19 08:35:31;;;;;;;34.53;28.95;;;;;;;;;;5038625;28;20033;-75
2022/03/19 08:40:41;;;;;;;33.55;26.30;;;;;;;;;;5046841;28;20055;-76
2022/03/19 08:43:06;;;;;;;37.17;27.02;;;;;;;;;;5030736;28;20634;-77
2022/03/19 08:45:32;;;;;;;35.35;29.50;;;;;;;;;;5030094;28;20067;-77
2022/03/19 08:47:58;;;;;;;34.28;26.85;;;;;;;;;;5047494;28;20064;-77
2022/03/19 08:50:26;;;;;;;36.10;26.90;;;;;;;;;;5043745;28;20037;-77
2022/03/19 08:52:51;;;;;;;33.38;26.42;;;;;;;;;;5047957;28;20062;-75
2022/03/19 08:55:17;;;;;;;29.25;25.38;;;;;;;;;;5029521;28;20115;-75
2022/03/19 08:57:43;;;;;;;32.90;27.63;;;;;;;;;;5045688;28;20036;-75
2022/03/19 09:00:09;;;;;;;32.85;26.45;;;;;;;;;;5047531;28;20029;-75
2022/03/19 09:02:35;;;;;;;34.67;27.42;;;;;;;;;;5047625;28;20488;-75
2022/03/19 09:05:01;;;;;;;32.10;27.83;;;;;;;;;;5043875;28;20031;-75
2022/03/19 09:07:26;;;;;;;35.10;29.90;;;;;;;;;;5028916;28;20040;-75
2022/03/19 09:09:55;;;;;;;35.85;26.27;;;;;;;;;;5047545;28;20208;-75
2022/03/19 09:12:22;;;;;;;33.53;27.25;;;;;;;;;;5028804;28;20132;-75
2022/03/19 09:14:48;;;;;;;32.17;27.55;;;;;;;;;;5029435;28;20032;-75
2022/03/19 09:17:13;;;;;;;36.60;29.95;;;;;;;;;;5051060;28;20059;-75
2022/03/19 09:19:39;;;;;;;32.83;27.02;;;;;;;;;;5031898;28;20053;-76
2022/03/19 09:22:05;;;;;;;32.30;27.00;;;;;;;;;;5051286;28;20031;-75
2022/03/19 09:24:30;;;;;;;32.63;27.02;;;;;;;;;;5032061;28;20036;-75
2022/03/19 09:26:56;;;;;;;31.40;26.75;;;;;;;;;;5030656;28;20116;-75
2022/03/19 09:29:22;;;;;;;33.95;28.00;;;;;;;;;;5045245;28;20120;-74
2022/03/19 09:31:47;;;;;;;31.92;25.85;;;;;;;;;;5026552;28;20063;-74
2022/03/19 09:34:13;;;;;;;37.28;28.88;;;;;;;;;;5048549;28;20079;-75
2022/03/19 09:36:41;;;;;;;30.52;27.00;;;;;;;;;;5039619;28;20639;-75
2022/03/19 09:39:07;;;;;;;36.78;28.33;;;;;;;;;;5032707;28;20135;-76
2022/03/19 09:41:33;;;;;;;39.72;27.25;;;;;;;;;;5044405;28;20037;-75
2022/03/19 09:43:59;;;;;;;34.33;27.95;;;;;;;;;;5047968;28;20419;-76
2022/03/19 09:46:25;;;;;;;37.63;26.67;;;;;;;;;;5045120;28;20041;-75
2022/03/19 09:48:53;;;;;;;32.83;27.10;;;;;;;;;;5007364;28;20116;-76
2022/03/19 09:51:19;;;;;;;35.45;27.42;;;;;;;;;;5042715;28;20032;-74
2022/03/19 09:53:46;;;;;;;31.80;26.92;;;;;;;;;;5048164;28;20043;-75
2022/03/19 09:56:12;;;;;;;35.28;27.10;;;;;;;;;;5030334;28;20079;-75
2022/03/19 09:58:38;;;;;;;31.70;27.33;;;;;;;;;;5023306;28;20667;-75
2022/03/19 10:01:05;;;;;;;33.95;26.95;;;;;;;;;;5007024;28;20037;-76
2022/03/19 10:03:37;;;;;;;33.50;26.90;;;;;;;;;;5049133;28;20029;-76
2022/03/19 10:08:56;;;;;;;37.13;27.50;;;;;;;;;;5011558;28;20076;-76
2022/03/19 10:11:22;;;;;;;32.83;27.75;;;;;;;;;;5027544;28;20029;-75
2022/03/19 10:13:50;;;;;;;32.10;25.70;;;;;;;;;;5044148;28;20055;-76
2022/03/19 10:16:25;;;;;;;32.83;27.00;;;;;;;;;;5044313;28;20032;-76
2022/03/19 10:18:58;;;;;;;34.00;27.23;;;;;;;;;;5020025;28;20044;-79
2022/03/19 10:21:25;;;;;;;33.45;26.70;;;;;;;;;;5017305;28;20048;-79
2022/03/19 10:23:51;;;;;;;31.90;26.65;;;;;;;;;;5034413;28;20045;-77
2022/03/19 10:26:31;;;;;;;31.63;26.67;;;;;;;;;;5051499;28;20171;-78
2022/03/19 10:29:03;;;;;;;34.72;26.33;;;;;;;;;;5035164;28;20381;-77
2022/03/19 10:31:50;;;;;;;34.28;27.13;;;;;;;;;;5017436;28;20068;-78
2022/03/19 10:34:16;;;;;;;33.88;28.50;;;;;;;;;;5051538;28;20060;-78
2022/03/19 10:36:46;;;;;;;33.17;26.70;;;;;;;;;;5001355;28;20056;-77
2022/03/19 10:39:17;;;;;;;35.42;29.00;;;;;;;;;;5034952;28;20040;-78
2022/03/19 10:41:43;;;;;;;33.90;27.95;;;;;;;;;;5031847;28;20054;-78
2022/03/19 10:44:14;;;;;;;37.88;27.77;;;;;;;;;;5033327;28;20029;-77
2022/03/19 10:46:59;;;;;;;40.42;29.33;;;;;;;;;;5033366;28;20048;-78
2022/03/19 10:49:29;;;;;;;36.83;26.92;;;;;;;;;;5047803;28;20090;-76
2022/03/19 10:52:01;;;;;;;37.85;27.35;;;;;;;;;;5043811;28;20124;-77
2022/03/19 10:54:28;;;;;;;35.47;27.63;;;;;;;;;;5033208;28;20037;-78
2022/03/19 10:56:53;;;;;;;36.25;29.88;;;;;;;;;;5034128;28;20052;-78
2022/03/19 10:59:20;;;;;;;38.00;29.02;;;;;;;;;;5024266;28;20068;-77
2022/03/19 11:01:49;;;;;;;37.33;27.98;;;;;;;;;;5033260;28;20039;-77
2022/03/19 11:04:15;;;;;;;32.53;25.38;;;;;;;;;;5036280;28;20041;-80
2022/03/19 11:06:44;;;;;;;33.42;26.63;;;;;;;;;;5034813;28;20033;-78
2022/03/19 11:09:13;;;;;;;31.40;24.13;;;;;;;;;;5052734;28;20032;-78
2022/03/19 11:11:58;;;;;;;30.95;24.48;;;;;;;;;;5016210;28;20129;-77
2022/03/19 11:14:27;;;;;;;28.38;22.70;;;;;;;;;;5009386;28;20044;-77
2022/03/19 11:19:44;;;;;;;33.00;24.17;;;;;;;;;;5034925;28;20033;-78
2022/03/19 11:22:11;;;;;;;28.85;22.63;;;;;;;;;;5017143;28;20041;-77
2022/03/19 11:24:46;;;;;;;26.42;22.48;;;;;;;;;;5001740;28;20136;-78
2022/03/19 11:27:13;;;;;;;23.90;21.40;;;;;;;;;;5018274;28;20036;-78
2022/03/19 11:29:39;;;;;;;21.95;19.20;;;;;;;;;;5034264;28;20088;-78
2022/03/19 11:32:06;;;;;;;21.98;17.92;;;;;;;;;;5031765;28;20040;-79
2022/03/19 11:34:46;;;;;;;20.55;18.40;;;;;;;;;;5014053;28;20094;-77
2022/03/19 11:37:13;;;;;;;20.33;18.13;;;;;;;;;;5029796;28;20087;-77
2022/03/19 11:39:58;;;;;;;20.88;18.52;;;;;;;;;;5031265;28;20507;-74
2022/03/19 11:42:28;;;;;;;24.00;19.00;;;;;;;;;;5026590;28;20032;-74
2022/03/19 11:44:54;;;;;;;24.73;19.25;;;;;;;;;;5018237;28;20036;-77
2022/03/19 11:47:21;;;;;;;22.27;19.02;;;;;;;;;;5011196;28;20036;-77
2022/03/19 11:49:48;;;;;;;21.73;17.88;;;;;;;;;;5022660;28;20029;-75
2022/03/19 11:52:26;;;;;;;22.80;18.73;;;;;;;;;;5010216;28;20067;-76
2022/03/19 11:55:02;;;;;;;22.98;19.25;;;;;;;;;;5047306;28;20045;-77
2022/03/19 11:57:28;;;;;;;22.75;19.63;;;;;;;;;;5046716;28;20025;-76
2022/03/19 12:00:00;;;;;;;22.45;20.15;;;;;;;;;;5046308;28;20036;-76
2022/03/19 12:02:27;;;;;;;21.73;19.40;;;;;;;;;;5019750;28;20079;-75
2022/03/19 12:04:55;;;;;;;21.60;19.02;;;;;;;;;;5023028;28;20100;-76
2022/03/19 12:07:45;;;;;;;22.15;19.60;;;;;;;;;;5044369;28;20424;-76
2022/03/19 12:10:17;;;;;;;;;;;;;;;;;;5044278;28;20045;-76
2022/03/19 12:12:45;;;;;;;22.60;20.33;;;;;;;;;;5045431;28;20340;-76
2022/03/19 12:15:29;;;;;;;25.90;20.23;;;;;;;;;;5047849;28;20059;-77
2022/03/19 12:18:33;;;;;;;21.63;19.42;;;;;;;;;;5020660;28;20047;-76
2022/03/19 12:21:11;;;;;;;20.65;18.45;;;;;;;;;;5036695;28;20041;-76
2022/03/19 12:24:06;;;;;;;21.55;19.38;;;;;;;;;;5023019;28;20043;-75
2022/03/19 12:26:43;;;;;;;21.30;19.00;;;;;;;;;;5020394;28;20183;-75
2022/03/19 12:29:11;;;;;;;20.70;18.52;;;;;;;;;;5035066;28;20063;-75
2022/03/19 12:31:45;;;;;;;20.88;18.70;;;;;;;;;;5046279;28;20470;-75
2022/03/19 12:34:14;;;;;;;24.08;17.92;;;;;;;;;;5041814;28;20036;-75
2022/03/19 12:36:40;;;;;;;20.02;18.02;;;;;;;;;;5043015;28;20037;-78
2022/03/19 12:39:06;;;;;;;20.58;18.42;;;;;;;;;;5034038;28;20036;-78
2022/03/19 12:41:32;;;;;;;22.83;19.50;;;;;;;;;;5014342;28;20078;-81
2022/03/19 12:44:00;;;;;;;21.58;17.58;;;;;;;;;;5034047;28;20118;-79
2022/03/19 12:46:34;;;;;;;20.13;17.63;;;;;;;;;;5050738;28;20074;-78
2022/03/19 12:49:16;;;;;;;20.85;18.60;;;;;;;;;;4999270;28;20030;-78
2022/03/19 12:51:45;;;;;;;20.90;18.70;;;;;;;;;;5015547;28;20041;-78
2022/03/19 12:54:29;;;;;;;18.88;16.77;;;;;;;;;;5022351;28;20036;-74
2022/03/19 12:56:57;;;;;;;21.50;19.25;;;;;;;;;;5046518;28;20033;-75
2022/03/19 12:59:28;;;;;;;19.10;17.07;;;;;;;;;;5028263;28;20039;-74
2022/03/19 13:01:55;;;;;;;20.05;16.70;;;;;;;;;;5033703;28;20121;-75
2022/03/19 13:04:26;;;;;;;29.20;18.63;;;;;;;;;;5021267;28;20033;-76
2022/03/19 13:06:53;;;;;;;22.60;18.58;;;;;;;;;;5033940;28;20942;-77
2022/03/19 13:09:31;;;;;;;22.17;17.15;;;;;;;;;;5014694;28;20119;-77
2022/03/19 13:11:57;;;;;;;20.83;18.23;;;;;;;;;;5024713;28;20072;-74
2022/03/19 13:14:24;;;;;;;21.50;16.65;;;;;;;;;;5031868;28;20032;-75
2022/03/19 13:16:53;;;;;;;25.38;17.90;;;;;;;;;;5002550;28;20036;-75
2022/03/19 13:19:20;;;;;;;18.45;15.32;;;;;;;;;;5030472;28;20420;-72
2022/03/19 13:21:50;;;;;;;18.58;15.52;;;;;;;;;;5053816;28;20040;-74
2022/03/19 13:24:19;;;;;;;19.45;16.75;;;;;;;;;;5047394;28;20039;-73
2022/03/19 13:26:45;;;;;;;18.35;16.02;;;;;;;;;;5028774;28;20037;-74
2022/03/19 13:29:13;;;;;;;19.27;15.43;;;;;;;;;;5015013;28;20060;-74
2022/03/19 13:31:48;;;;;;;16.52;14.93;;;;;;;;;;5030733;28;20041;-74
2022/03/19 13:34:21;;;;;;;22.30;17.20;;;;;;;;;;5029588;28;20045;-76
2022/03/19 13:36:54;;;;;;;18.08;16.25;;;;;;;;;;5027332;28;20116;-76
2022/03/19 13:39:21;;;;;;;15.65;13.98;;;;;;;;;;5022834;28;20091;-73
2022/03/19 13:41:47;;;;;;;17.33;14.98;;;;;;;;;;5018360;28;20056;-74
2022/03/19 13:44:27;;;;;;;16.65;14.95;;;;;;;;;;5047689;28;20468;-73
2022/03/19 13:47:08;;;;;;;16.08;14.68;;;;;;;;;;5029040;28;20063;-73
2022/03/19 13:49:57;;;;;;;16.10;14.38;;;;;;;;;;5044567;28;20040;-75
2022/03/19 13:52:28;;;;;;;;;;;;;;;;;;5030736;28;20029;-75
2022/03/19 13:54:55;;;;;;;21.95;15.05;;;;;;;;;;5031613;28;19921;-76
2022/03/19 13:57:21;;;;;;;20.85;15.73;;;;;;;;;;5049895;28;20113;-74
2022/03/19 13:59:47;;;;;;;23.38;16.15;;;;;;;;;;5008501;28;20477;-76
2022/03/19 14:02:12;;;;;;;19.92;16.05;;;;;;;;;;5030605;28;20041;-78
2022/03/19 14:04:38;;;;;;;15.35;13.70;;;;;;;;;;5007449;28;20182;-78
2022/03/19 14:07:05;;;;;;;15.15;13.55;;;;;;;;;;5036136;28;20187;-77
2022/03/19 14:09:32;;;;;;;34.25;19.05;;;;;;;;;;5042344;28;20396;-75
2022/03/19 14:11:58;;;;;;;16.65;14.15;;;;;;;;;;5042842;28;20041;-75
2022/03/19 14:14:24;;;;;;;16.05;14.40;;;;;;;;;;5039304;28;20040;-75
2022/03/19 14:16:55;;;;;;;14.90;13.40;;;;;;;;;;5047324;28;20617;-76
2022/03/19 14:19:22;;;;;;;15.63;13.95;;;;;;;;;;5030508;28;20152;-76
2022/03/19 14:21:47;;;;;;;14.55;13.15;;;;;;;;;;5042917;28;20033;-77
2022/03/19 14:24:13;;;;;;;15.13;13.70;;;;;;;;;;5013832;28;20041;-77
2022/03/19 14:26:39;;;;;;;14.30;13.02;;;;;;;;;;5045149;28;20045;-76
2022/03/19 14:29:04;;;;;;;13.52;12.43;;;;;;;;;;5008088;28;20037;-77
2022/03/19 14:31:31;;;;;;;15.35;13.85;;;;;;;;;;5013695;28;20033;-74
2022/03/19 14:33:56;;;;;;;15.82;13.65;;;;;;;;;;5014968;28;20111;-76
2022/03/19 14:36:22;;;;;;;15.23;13.32;;;;;;;;;;5029220;28;20029;-76
2022/03/19 14:38:49;;;;;;;14.88;13.57;;;;;;;;;;5013880;28;20087;-77
2022/03/19 14:41:16;;;;;;;14.73;13.35;;;;;;;;;;5040678;28;20025;-77